EWG51M EDDL-LPPR
Flight info
| Callsign | EWG51M |
|---|---|
| Flight time | 2h 30m |
| Altitude | 34000 |
| Route | MODRU2T/23L MODRU Z283 LNO DCT RASCA DCT FAMEN/N0439F350 DCT ESTOC UT300 ELCOB UT176 LGL UT190 GODIX UN872 ERIGA UN741 AZFIC DCT LOTEE DCT ELTEP T328 ASPOR ASPO6A |
| Aircraft | A319/M-SDE3FGHIRWY/LB1 |
Departure
| Time | 2026-05-05 10:24 |
|---|---|
| Airport | Düsseldorf Airport (EDDL) |
Arrival
| Time | 2026-05-05 12:54 |
|---|---|
| Airport | Francisco de Sá Carneiro Airport (LPPR) |
| Time | Latitude | Longitude | Altitude | Speed | Heading |
|---|---|---|---|---|---|
| 2026-05-05 10:03 | 51.28039 | 6.76221 | 130 ft | 0 kts | 163° |
| 2026-05-05 10:12 | 51.28049 | 6.76216 | 130 ft | 4 kts | 163° |
| 2026-05-05 10:12 | 51.28076 | 6.76204 | 126 ft | 4 kts | 163° |
| 2026-05-05 10:12 | 51.28100 | 6.76190 | 129 ft | 4 kts | 142° |
| 2026-05-05 10:12 | 51.28111 | 6.76172 | 130 ft | 2 kts | 56° |
| 2026-05-05 10:13 | 51.28110 | 6.76169 | 130 ft | 0 kts | 53° |
| 2026-05-05 10:17 | 51.28110 | 6.76170 | 130 ft | 1 kts | 53° |
| 2026-05-05 10:17 | 51.28117 | 6.76184 | 128 ft | 3 kts | 53° |
| 2026-05-05 10:17 | 51.28140 | 6.76232 | 127 ft | 7 kts | 53° |
| 2026-05-05 10:17 | 51.28187 | 6.76248 | 126 ft | 10 kts | 322° |
| 2026-05-05 10:18 | 51.28251 | 6.76270 | 126 ft | 13 kts | 56° |
| 2026-05-05 10:18 | 51.28312 | 6.76404 | 127 ft | 18 kts | 52° |
| 2026-05-05 10:18 | 51.28393 | 6.76574 | 125 ft | 21 kts | 53° |
| 2026-05-05 10:18 | 51.28484 | 6.76765 | 125 ft | 22 kts | 52° |
| 2026-05-05 10:19 | 51.28580 | 6.76966 | 126 ft | 23 kts | 52° |
| 2026-05-05 10:19 | 51.28677 | 6.77170 | 128 ft | 25 kts | 53° |
| 2026-05-05 10:19 | 51.28790 | 6.77407 | 126 ft | 28 kts | 52° |
| 2026-05-05 10:19 | 51.28899 | 6.77635 | 128 ft | 21 kts | 53° |
| 2026-05-05 10:20 | 51.28989 | 6.77826 | 129 ft | 23 kts | 52° |
| 2026-05-05 10:20 | 51.29087 | 6.78032 | 131 ft | 24 kts | 53° |
| 2026-05-05 10:20 | 51.29187 | 6.78240 | 138 ft | 23 kts | 52° |
| 2026-05-05 10:20 | 51.29279 | 6.78434 | 146 ft | 21 kts | 52° |
| 2026-05-05 10:21 | 51.29351 | 6.78562 | 151 ft | 14 kts | 27° |
| 2026-05-05 10:21 | 51.29431 | 6.78567 | 152 ft | 4 kts | 353° |
| 2026-05-05 10:21 | 51.29437 | 6.78566 | 152 ft | 0 kts | 353° |
| 2026-05-05 10:22 | 51.29439 | 6.78565 | 152 ft | 1 kts | 354° |
| 2026-05-05 10:22 | 51.29460 | 6.78565 | 152 ft | 4 kts | 359° |
| 2026-05-05 10:22 | 51.29494 | 6.78562 | 153 ft | 6 kts | 351° |
| 2026-05-05 10:23 | 51.29526 | 6.78522 | 154 ft | 7 kts | 296° |
| 2026-05-05 10:23 | 51.29503 | 6.78435 | 151 ft | 11 kts | 227° |
| 2026-05-05 10:23 | 51.29424 | 6.78272 | 147 ft | 36 kts | 232° |
| 2026-05-05 10:23 | 51.29140 | 6.77674 | 134 ft | 99 kts | 232° |
| 2026-05-05 10:24 | 51.28609 | 6.76554 | 132 ft | 153 kts | 233° |
| 2026-05-05 10:24 | 51.27958 | 6.75155 | 430 ft | 172 kts | 235° |
| 2026-05-05 10:24 | 51.27233 | 6.73644 | 1065 ft | 174 kts | 234° |
| 2026-05-05 10:24 | 51.26523 | 6.72126 | 1676 ft | 183 kts | 234° |
| 2026-05-05 10:25 | 51.25726 | 6.70405 | 1994 ft | 204 kts | 234° |
| 2026-05-05 10:25 | 51.24851 | 6.68509 | 2438 ft | 217 kts | 234° |
| 2026-05-05 10:25 | 51.23946 | 6.66539 | 3147 ft | 222 kts | 236° |
| 2026-05-05 10:25 | 51.23575 | 6.65418 | 3538 ft | 221 kts | 249° |
| 2026-05-05 10:26 | 51.23507 | 6.63346 | 4689 ft | 197 kts | 285° |
| 2026-05-05 10:26 | 51.24263 | 6.61437 | 5007 ft | 223 kts | 317° |
| 2026-05-05 10:26 | 51.25043 | 6.60276 | 5023 ft | 249 kts | 315° |
| 2026-05-05 10:26 | 51.26240 | 6.58642 | 5002 ft | 268 kts | 322° |
| 2026-05-05 10:27 | 51.27724 | 6.56907 | 5053 ft | 275 kts | 324° |
| 2026-05-05 10:27 | 51.29257 | 6.55170 | 5861 ft | 278 kts | 324° |
| 2026-05-05 10:27 | 51.30826 | 6.53351 | 6767 ft | 280 kts | 323° |
| 2026-05-05 10:27 | 51.32392 | 6.51472 | 7620 ft | 283 kts | 323° |
| 2026-05-05 10:28 | 51.33928 | 6.49573 | 8410 ft | 287 kts | 322° |
| 2026-05-05 10:28 | 51.35279 | 6.47864 | 9111 ft | 291 kts | 322° |
| 2026-05-05 10:28 | 51.36723 | 6.46014 | 9878 ft | 294 kts | 322° |
| 2026-05-05 10:28 | 51.38260 | 6.43829 | 10586 ft | 300 kts | 310° |
| 2026-05-05 10:29 | 51.39250 | 6.40883 | 11300 ft | 304 kts | 285° |
| 2026-05-05 10:29 | 51.39423 | 6.37560 | 12030 ft | 308 kts | 262° |
| 2026-05-05 10:29 | 51.38992 | 6.35102 | 12599 ft | 309 kts | 244° |
| 2026-05-05 10:29 | 51.37963 | 6.32695 | 13205 ft | 311 kts | 224° |
| 2026-05-05 10:30 | 51.36263 | 6.30671 | 13911 ft | 314 kts | 212° |
| 2026-05-05 10:30 | 51.34421 | 6.28772 | 14568 ft | 316 kts | 212° |
| 2026-05-05 10:30 | 51.32560 | 6.27033 | 15242 ft | 317 kts | 204° |
| 2026-05-05 10:30 | 51.30456 | 6.25705 | 15487 ft | 336 kts | 199° |
| 2026-05-05 10:31 | 51.28447 | 6.24536 | 15693 ft | 350 kts | 199° |
| 2026-05-05 10:31 | 51.26209 | 6.23248 | 16183 ft | 356 kts | 199° |
| 2026-05-05 10:31 | 51.23853 | 6.21890 | 16805 ft | 358 kts | 199° |
| 2026-05-05 10:31 | 51.22614 | 6.21173 | 17144 ft | 359 kts | 199° |
| 2026-05-05 10:32 | 51.20315 | 6.19831 | 17842 ft | 360 kts | 199° |
| 2026-05-05 10:32 | 51.17959 | 6.18455 | 18446 ft | 362 kts | 199° |
| 2026-05-05 10:32 | 51.15885 | 6.17244 | 18905 ft | 365 kts | 199° |
| 2026-05-05 10:32 | 51.13453 | 6.15823 | 19454 ft | 368 kts | 199° |
| 2026-05-05 10:33 | 51.11256 | 6.14543 | 19972 ft | 370 kts | 199° |
| 2026-05-05 10:33 | 51.09116 | 6.13298 | 20466 ft | 373 kts | 199° |
| 2026-05-05 10:33 | 51.07500 | 6.12360 | 20824 ft | 374 kts | 199° |
| 2026-05-05 10:33 | 51.05878 | 6.11419 | 21143 ft | 377 kts | 199° |
| 2026-05-05 10:34 | 51.03584 | 6.10091 | 21653 ft | 379 kts | 199° |
| 2026-05-05 10:34 | 51.01164 | 6.08405 | 22192 ft | 382 kts | 208° |
| 2026-05-05 10:34 | 50.98922 | 6.06206 | 22720 ft | 386 kts | 211° |
| 2026-05-05 10:34 | 50.96646 | 6.03936 | 23234 ft | 389 kts | 211° |
| 2026-05-05 10:35 | 50.94464 | 6.01775 | 23668 ft | 391 kts | 211° |
| 2026-05-05 10:35 | 50.93164 | 6.00542 | 23941 ft | 392 kts | 209° |
| 2026-05-05 10:35 | 50.90985 | 5.98602 | 24365 ft | 393 kts | 208° |
| 2026-05-05 10:35 | 50.88579 | 5.96575 | 24796 ft | 395 kts | 207° |
| 2026-05-05 10:36 | 50.87609 | 5.95775 | 24971 ft | 395 kts | 207° |
| 2026-05-05 10:36 | 50.85251 | 5.94085 | 25369 ft | 397 kts | 204° |
| 2026-05-05 10:36 | 50.83122 | 5.92490 | 25749 ft | 398 kts | 206° |
| 2026-05-05 10:36 | 50.80740 | 5.90484 | 26176 ft | 399 kts | 209° |
| 2026-05-05 10:37 | 50.78783 | 5.88712 | 26539 ft | 400 kts | 210° |
| 2026-05-05 10:37 | 50.76380 | 5.86499 | 26978 ft | 401 kts | 210° |
| 2026-05-05 10:37 | 50.73960 | 5.84293 | 27419 ft | 401 kts | 209° |
| 2026-05-05 10:37 | 50.72471 | 5.82951 | 27676 ft | 402 kts | 209° |
| 2026-05-05 10:38 | 50.70021 | 5.80784 | 28124 ft | 403 kts | 208° |
| 2026-05-05 10:38 | 50.68521 | 5.79475 | 28382 ft | 404 kts | 208° |
| 2026-05-05 10:38 | 50.66055 | 5.77358 | 28809 ft | 406 kts | 208° |
| 2026-05-05 10:38 | 50.63558 | 5.75241 | 29254 ft | 407 kts | 208° |
| 2026-05-05 10:39 | 50.61623 | 5.73606 | 29578 ft | 408 kts | 208° |
| 2026-05-05 10:39 | 50.59255 | 5.71206 | 29979 ft | 411 kts | 217° |
| 2026-05-05 10:39 | 50.57126 | 5.68188 | 30330 ft | 414 kts | 226° |
| 2026-05-05 10:39 | 50.55319 | 5.64816 | 30686 ft | 415 kts | 229° |
| 2026-05-05 10:40 | 50.53981 | 5.62254 | 30973 ft | 415 kts | 229° |
| 2026-05-05 10:40 | 50.52712 | 5.59822 | 31222 ft | 415 kts | 229° |
| 2026-05-05 10:40 | 50.50908 | 5.56379 | 31657 ft | 413 kts | 228° |
| 2026-05-05 10:40 | 50.49082 | 5.52900 | 32097 ft | 411 kts | 227° |
| 2026-05-05 10:41 | 50.47267 | 5.49452 | 32563 ft | 408 kts | 227° |
| 2026-05-05 10:41 | 50.45522 | 5.46147 | 33052 ft | 405 kts | 227° |
| 2026-05-05 10:41 | 50.43734 | 5.42760 | 33577 ft | 402 kts | 227° |
| 2026-05-05 10:41 | 50.41968 | 5.39414 | 34068 ft | 399 kts | 227° |
| 2026-05-05 10:42 | 50.38635 | 5.33112 | 34713 ft | 398 kts | 227° |
| 2026-05-05 10:42 | 50.36871 | 5.29790 | 34854 ft | 398 kts | 227° |
| 2026-05-05 10:43 | 50.33922 | 5.24245 | 34879 ft | 394 kts | 227° |
| 2026-05-05 10:43 | 50.30523 | 5.17866 | 34880 ft | 394 kts | 227° |
| 2026-05-05 10:44 | 50.27003 | 5.11268 | 34889 ft | 396 kts | 227° |
| 2026-05-05 10:44 | 50.23648 | 5.04990 | 34905 ft | 396 kts | 227° |
| 2026-05-05 10:45 | 50.20102 | 4.98387 | 34888 ft | 398 kts | 227° |
| 2026-05-05 10:45 | 50.16863 | 4.92363 | 34882 ft | 398 kts | 227° |
| 2026-05-05 10:46 | 50.13313 | 4.85775 | 34877 ft | 398 kts | 227° |
| 2026-05-05 10:46 | 50.09760 | 4.79212 | 34877 ft | 398 kts | 227° |
| 2026-05-05 10:47 | 50.06313 | 4.72854 | 34874 ft | 399 kts | 226° |
| 2026-05-05 10:47 | 50.02738 | 4.66259 | 34864 ft | 399 kts | 226° |
| 2026-05-05 10:48 | 49.99284 | 4.59925 | 34868 ft | 399 kts | 226° |
| 2026-05-05 10:48 | 49.96067 | 4.52864 | 34884 ft | 404 kts | 236° |
| 2026-05-05 10:49 | 49.93283 | 4.45408 | 34879 ft | 406 kts | 237° |
| 2026-05-05 10:49 | 49.90463 | 4.37897 | 34871 ft | 406 kts | 236° |
| 2026-05-05 10:50 | 49.87752 | 4.30691 | 34867 ft | 406 kts | 236° |
| 2026-05-05 10:50 | 49.84985 | 4.23347 | 34861 ft | 407 kts | 236° |
| 2026-05-05 10:51 | 49.82143 | 4.15838 | 34868 ft | 408 kts | 236° |
| 2026-05-05 10:51 | 49.79287 | 4.08308 | 34861 ft | 409 kts | 236° |
| 2026-05-05 10:52 | 49.76463 | 4.00887 | 34854 ft | 408 kts | 236° |
| 2026-05-05 10:52 | 49.73574 | 3.93333 | 34868 ft | 408 kts | 236° |
| 2026-05-05 10:53 | 49.70695 | 3.85803 | 34858 ft | 408 kts | 236° |
| 2026-05-05 10:53 | 49.67809 | 3.78290 | 34868 ft | 408 kts | 236° |
| 2026-05-05 10:54 | 49.64909 | 3.70768 | 34862 ft | 409 kts | 236° |
| 2026-05-05 10:54 | 49.62007 | 3.63272 | 34854 ft | 409 kts | 236° |
| 2026-05-05 10:55 | 49.59122 | 3.55814 | 34862 ft | 410 kts | 236° |
| 2026-05-05 10:55 | 49.56189 | 3.48260 | 34861 ft | 411 kts | 236° |
| 2026-05-05 10:56 | 49.53257 | 3.40735 | 34851 ft | 412 kts | 236° |
| 2026-05-05 10:56 | 49.50329 | 3.33236 | 34863 ft | 412 kts | 236° |
| 2026-05-05 10:57 | 49.47467 | 3.25932 | 34849 ft | 412 kts | 236° |
| 2026-05-05 10:57 | 49.44469 | 3.18301 | 34853 ft | 413 kts | 235° |
| 2026-05-05 10:58 | 49.41595 | 3.11016 | 34875 ft | 413 kts | 235° |
| 2026-05-05 10:58 | 49.38687 | 3.03652 | 34860 ft | 413 kts | 236° |
| 2026-05-05 10:59 | 49.35787 | 2.96325 | 34858 ft | 413 kts | 235° |
| 2026-05-05 10:59 | 49.32798 | 2.88795 | 34851 ft | 413 kts | 235° |
| 2026-05-05 11:00 | 49.30035 | 2.81859 | 34857 ft | 413 kts | 235° |
| 2026-05-05 11:00 | 49.27240 | 2.74872 | 34858 ft | 413 kts | 235° |
| 2026-05-05 11:01 | 49.24277 | 2.67478 | 34848 ft | 413 kts | 235° |
| 2026-05-05 11:01 | 49.21532 | 2.60649 | 34858 ft | 413 kts | 235° |
| 2026-05-05 11:02 | 49.18523 | 2.53171 | 34850 ft | 413 kts | 235° |
| 2026-05-05 11:02 | 49.15784 | 2.46394 | 34847 ft | 414 kts | 235° |
| 2026-05-05 11:03 | 49.13279 | 2.39096 | 34846 ft | 420 kts | 247° |
| 2026-05-05 11:03 | 49.12268 | 2.32359 | 34850 ft | 425 kts | 258° |
| 2026-05-05 11:04 | 49.11484 | 2.23608 | 34876 ft | 426 kts | 258° |
| 2026-05-05 11:04 | 49.10741 | 2.15445 | 34890 ft | 427 kts | 258° |
| 2026-05-05 11:05 | 49.10136 | 2.08872 | 34888 ft | 427 kts | 258° |
| 2026-05-05 11:05 | 49.09311 | 1.99987 | 34883 ft | 427 kts | 259° |
| 2026-05-05 11:06 | 49.08670 | 1.91811 | 34882 ft | 427 kts | 260° |
| 2026-05-05 11:06 | 49.08264 | 1.86037 | 34858 ft | 428 kts | 260° |
| 2026-05-05 11:07 | 49.07627 | 1.77450 | 34860 ft | 428 kts | 259° |
| 2026-05-05 11:07 | 49.06940 | 1.68684 | 34879 ft | 429 kts | 259° |
| 2026-05-05 11:08 | 49.06178 | 1.61234 | 34849 ft | 430 kts | 258° |
| 2026-05-05 11:08 | 49.05511 | 1.52405 | 34854 ft | 433 kts | 261° |
| 2026-05-05 11:09 | 49.04993 | 1.44701 | 34861 ft | 435 kts | 260° |
| 2026-05-05 11:09 | 49.04313 | 1.35616 | 34867 ft | 435 kts | 259° |
| 2026-05-05 11:10 | 49.03548 | 1.26562 | 34877 ft | 435 kts | 257° |
| 2026-05-05 11:10 | 49.01936 | 1.18575 | 34875 ft | 427 kts | 240° |
| 2026-05-05 11:11 | 48.99196 | 1.10570 | 34879 ft | 426 kts | 238° |
| 2026-05-05 11:11 | 48.96431 | 1.02577 | 34881 ft | 427 kts | 238° |
| 2026-05-05 11:12 | 48.93967 | 0.95468 | 34881 ft | 426 kts | 238° |
| 2026-05-05 11:12 | 48.92622 | 0.91600 | 34878 ft | 426 kts | 238° |
| 2026-05-05 11:13 | 48.91308 | 0.87819 | 34886 ft | 415 kts | 238° |
| 2026-05-05 11:13 | 48.89987 | 0.84015 | 34880 ft | 402 kts | 238° |
| 2026-05-05 11:13 | 48.88670 | 0.80243 | 34889 ft | 407 kts | 238° |
| 2026-05-05 11:14 | 48.86156 | 0.73112 | 34889 ft | 420 kts | 238° |
| 2026-05-05 11:14 | 48.83372 | 0.65225 | 34893 ft | 426 kts | 238° |
| 2026-05-05 11:15 | 48.80578 | 0.57326 | 34890 ft | 427 kts | 237° |
| 2026-05-05 11:15 | 48.77113 | 0.50407 | 34893 ft | 418 kts | 220° |
| 2026-05-05 11:16 | 48.72784 | 0.44557 | 34888 ft | 418 kts | 218° |
| 2026-05-05 11:16 | 48.68470 | 0.38751 | 34895 ft | 417 kts | 218° |
| 2026-05-05 11:17 | 48.64141 | 0.32919 | 34899 ft | 418 kts | 218° |
| 2026-05-05 11:17 | 48.59787 | 0.27078 | 34884 ft | 419 kts | 218° |
| 2026-05-05 11:18 | 48.55425 | 0.21251 | 34864 ft | 419 kts | 218° |
| 2026-05-05 11:18 | 48.51081 | 0.15452 | 34877 ft | 420 kts | 218° |
| 2026-05-05 11:19 | 48.46712 | 0.09627 | 34874 ft | 419 kts | 218° |
| 2026-05-05 11:19 | 48.42344 | 0.03811 | 34873 ft | 419 kts | 218° |
| 2026-05-05 11:20 | 48.37956 | -0.02011 | 34866 ft | 420 kts | 218° |
| 2026-05-05 11:20 | 48.34095 | -0.08609 | 34859 ft | 427 kts | 230° |
| 2026-05-05 11:21 | 48.30565 | -0.15767 | 34854 ft | 428 kts | 230° |
| 2026-05-05 11:21 | 48.27013 | -0.22921 | 34857 ft | 429 kts | 230° |
| 2026-05-05 11:22 | 48.23440 | -0.30061 | 34855 ft | 429 kts | 229° |
| 2026-05-05 11:22 | 48.19807 | -0.37161 | 34861 ft | 430 kts | 229° |
| 2026-05-05 11:23 | 48.16298 | -0.43966 | 34866 ft | 431 kts | 229° |
| 2026-05-05 11:23 | 48.12638 | -0.51080 | 34868 ft | 431 kts | 229° |
| 2026-05-05 11:24 | 48.08981 | -0.58196 | 34872 ft | 431 kts | 229° |
| 2026-05-05 11:24 | 48.05347 | -0.65246 | 34874 ft | 432 kts | 229° |
| 2026-05-05 11:25 | 48.01702 | -0.72304 | 34874 ft | 432 kts | 229° |
| 2026-05-05 11:25 | 47.98025 | -0.79405 | 34883 ft | 432 kts | 229° |
| 2026-05-05 11:26 | 47.94368 | -0.86456 | 34894 ft | 432 kts | 229° |
| 2026-05-05 11:26 | 47.90672 | -0.93531 | 34889 ft | 432 kts | 229° |
| 2026-05-05 11:27 | 47.86977 | -1.00593 | 34871 ft | 432 kts | 229° |
| 2026-05-05 11:27 | 47.83448 | -1.07344 | 34872 ft | 433 kts | 229° |
| 2026-05-05 11:28 | 47.79737 | -1.14416 | 34876 ft | 433 kts | 229° |
| 2026-05-05 11:28 | 47.76148 | -1.21243 | 34882 ft | 434 kts | 229° |
| 2026-05-05 11:29 | 47.72425 | -1.28297 | 34882 ft | 434 kts | 229° |
| 2026-05-05 11:29 | 47.68845 | -1.35053 | 34884 ft | 434 kts | 229° |
| 2026-05-05 11:30 | 47.65102 | -1.42102 | 34883 ft | 435 kts | 229° |
| 2026-05-05 11:30 | 47.61361 | -1.49145 | 34891 ft | 435 kts | 228° |
| 2026-05-05 11:31 | 47.57527 | -1.56061 | 34906 ft | 434 kts | 225° |
| 2026-05-05 11:31 | 47.53507 | -1.62621 | 34903 ft | 433 kts | 224° |
| 2026-05-05 11:32 | 47.49413 | -1.69154 | 34903 ft | 433 kts | 224° |
| 2026-05-05 11:32 | 47.45372 | -1.75710 | 34901 ft | 434 kts | 225° |
| 2026-05-05 11:33 | 47.41427 | -1.82202 | 34900 ft | 434 kts | 225° |
| 2026-05-05 11:33 | 47.37418 | -1.88785 | 34907 ft | 434 kts | 225° |
| 2026-05-05 11:34 | 47.32946 | -1.94633 | 34900 ft | 429 kts | 209° |
| 2026-05-05 11:34 | 47.27855 | -1.99161 | 34903 ft | 429 kts | 208° |
| 2026-05-05 11:35 | 47.22756 | -2.03737 | 34904 ft | 430 kts | 209° |
| 2026-05-05 11:35 | 47.17773 | -2.08200 | 34905 ft | 430 kts | 209° |
| 2026-05-05 11:36 | 47.12654 | -2.12747 | 34901 ft | 431 kts | 209° |
| 2026-05-05 11:36 | 47.07535 | -2.17287 | 34900 ft | 431 kts | 209° |
| 2026-05-05 11:37 | 47.02400 | -2.21833 | 34902 ft | 431 kts | 209° |
| 2026-05-05 11:37 | 46.97431 | -2.26234 | 34898 ft | 431 kts | 209° |
| 2026-05-05 11:38 | 46.92321 | -2.30740 | 34910 ft | 432 kts | 209° |
| 2026-05-05 11:38 | 46.87378 | -2.35588 | 34909 ft | 434 kts | 220° |
| 2026-05-05 11:39 | 46.83655 | -2.42253 | 34907 ft | 438 kts | 238° |
| 2026-05-05 11:39 | 46.80585 | -2.50100 | 34916 ft | 439 kts | 238° |
| 2026-05-05 11:40 | 46.77536 | -2.57819 | 34914 ft | 439 kts | 238° |
| 2026-05-05 11:40 | 46.74488 | -2.65484 | 34922 ft | 440 kts | 238° |
| 2026-05-05 11:41 | 46.71418 | -2.73199 | 34921 ft | 440 kts | 238° |
| 2026-05-05 11:41 | 46.68335 | -2.80919 | 34930 ft | 441 kts | 238° |
| 2026-05-05 11:42 | 46.65261 | -2.88630 | 34925 ft | 440 kts | 238° |
| 2026-05-05 11:42 | 46.62196 | -2.96275 | 34931 ft | 441 kts | 238° |
| 2026-05-05 11:43 | 46.59093 | -3.03983 | 34932 ft | 441 kts | 238° |
| 2026-05-05 11:43 | 46.55649 | -3.11324 | 34936 ft | 439 kts | 226° |
| 2026-05-05 11:44 | 46.51426 | -3.17686 | 34941 ft | 438 kts | 224° |
| 2026-05-05 11:44 | 46.47906 | -3.22984 | 34947 ft | 438 kts | 225° |
| 2026-05-05 11:45 | 46.42978 | -3.30392 | 34938 ft | 439 kts | 225° |
| 2026-05-05 11:45 | 46.38732 | -3.36750 | 34937 ft | 440 kts | 225° |
| 2026-05-05 11:46 | 46.35193 | -3.42036 | 34942 ft | 440 kts | 224° |
| 2026-05-05 11:46 | 46.30233 | -3.49434 | 34947 ft | 440 kts | 225° |
| 2026-05-05 11:47 | 46.25976 | -3.55788 | 34951 ft | 440 kts | 225° |
| 2026-05-05 11:47 | 46.22432 | -3.61053 | 34954 ft | 440 kts | 225° |
| 2026-05-05 11:48 | 46.16024 | -3.70528 | 34956 ft | 440 kts | 225° |
| 2026-05-05 11:48 | 46.11050 | -3.77869 | 34954 ft | 440 kts | 225° |
| 2026-05-05 11:49 | 46.06770 | -3.84171 | 34961 ft | 440 kts | 225° |
| 2026-05-05 11:49 | 46.03213 | -3.89399 | 34961 ft | 440 kts | 225° |
| 2026-05-05 11:50 | 45.98920 | -3.95682 | 34960 ft | 440 kts | 225° |
| 2026-05-05 11:50 | 45.94629 | -4.01941 | 34960 ft | 440 kts | 225° |
| 2026-05-05 11:51 | 45.90334 | -4.08208 | 34960 ft | 440 kts | 225° |
| 2026-05-05 11:51 | 45.86063 | -4.14424 | 34964 ft | 440 kts | 225° |
| 2026-05-05 11:52 | 45.81762 | -4.20674 | 34965 ft | 439 kts | 225° |
| 2026-05-05 11:52 | 45.77469 | -4.26908 | 34971 ft | 439 kts | 225° |
| 2026-05-05 11:53 | 45.73171 | -4.33115 | 34971 ft | 439 kts | 225° |
| 2026-05-05 11:53 | 45.68872 | -4.39315 | 34973 ft | 439 kts | 225° |
| 2026-05-05 11:54 | 45.64594 | -4.45466 | 34975 ft | 439 kts | 225° |
| 2026-05-05 11:54 | 45.60292 | -4.51637 | 34975 ft | 438 kts | 225° |
| 2026-05-05 11:55 | 45.55987 | -4.57799 | 34978 ft | 438 kts | 225° |
| 2026-05-05 11:55 | 45.51713 | -4.63907 | 34981 ft | 438 kts | 225° |
| 2026-05-05 11:56 | 45.47399 | -4.70045 | 34980 ft | 438 kts | 225° |
| 2026-05-05 11:56 | 45.43082 | -4.76186 | 34973 ft | 439 kts | 225° |
| 2026-05-05 11:57 | 45.38762 | -4.82315 | 34979 ft | 439 kts | 225° |
| 2026-05-05 11:57 | 45.34436 | -4.88451 | 34981 ft | 439 kts | 225° |
| 2026-05-05 11:58 | 45.30137 | -4.94533 | 34979 ft | 439 kts | 225° |
| 2026-05-05 11:58 | 45.25800 | -5.00644 | 34991 ft | 439 kts | 225° |
| 2026-05-05 11:59 | 45.21456 | -5.06743 | 34979 ft | 439 kts | 225° |
| 2026-05-05 11:59 | 45.17110 | -5.12837 | 34983 ft | 439 kts | 226° |
| 2026-05-05 12:00 | 45.12796 | -5.18890 | 34986 ft | 440 kts | 226° |
| 2026-05-05 12:00 | 45.08439 | -5.24965 | 34994 ft | 440 kts | 225° |
| 2026-05-05 12:01 | 45.04077 | -5.31033 | 34998 ft | 440 kts | 225° |
| 2026-05-05 12:01 | 44.99722 | -5.37089 | 34995 ft | 439 kts | 226° |
| 2026-05-05 12:02 | 44.95393 | -5.43088 | 34995 ft | 439 kts | 226° |
| 2026-05-05 12:02 | 44.91023 | -5.49129 | 34996 ft | 439 kts | 225° |
| 2026-05-05 12:03 | 44.86658 | -5.55168 | 34999 ft | 440 kts | 225° |
| 2026-05-05 12:03 | 44.82288 | -5.61186 | 35001 ft | 440 kts | 226° |
| 2026-05-05 12:04 | 44.77938 | -5.67162 | 35007 ft | 439 kts | 226° |
| 2026-05-05 12:04 | 44.73575 | -5.73165 | 34998 ft | 439 kts | 226° |
| 2026-05-05 12:05 | 44.69196 | -5.79157 | 35003 ft | 439 kts | 226° |
| 2026-05-05 12:05 | 44.64652 | -5.84906 | 35002 ft | 441 kts | 217° |
| 2026-05-05 12:06 | 44.59633 | -5.89881 | 35008 ft | 442 kts | 217° |
| 2026-05-05 12:06 | 44.54646 | -5.94816 | 35016 ft | 442 kts | 217° |
| 2026-05-05 12:07 | 44.49628 | -5.99781 | 35016 ft | 442 kts | 217° |
| 2026-05-05 12:07 | 44.44608 | -6.04739 | 35011 ft | 442 kts | 217° |
| 2026-05-05 12:08 | 44.39581 | -6.09680 | 35009 ft | 441 kts | 217° |
| 2026-05-05 12:08 | 44.34555 | -6.14618 | 35012 ft | 442 kts | 217° |
| 2026-05-05 12:09 | 44.29563 | -6.19518 | 35016 ft | 442 kts | 217° |
| 2026-05-05 12:09 | 44.24529 | -6.24450 | 35014 ft | 442 kts | 217° |
| 2026-05-05 12:10 | 44.19493 | -6.29358 | 35024 ft | 441 kts | 217° |
| 2026-05-05 12:10 | 44.14461 | -6.34248 | 35024 ft | 441 kts | 217° |
| 2026-05-05 12:11 | 44.09470 | -6.39098 | 35036 ft | 440 kts | 217° |
| 2026-05-05 12:11 | 44.04442 | -6.43972 | 35034 ft | 440 kts | 217° |
| 2026-05-05 12:12 | 43.99428 | -6.48831 | 35020 ft | 439 kts | 217° |
| 2026-05-05 12:12 | 43.94411 | -6.53687 | 35019 ft | 440 kts | 218° |
| 2026-05-05 12:13 | 43.89386 | -6.58532 | 35027 ft | 440 kts | 218° |
| 2026-05-05 12:13 | 43.84394 | -6.63327 | 35037 ft | 440 kts | 217° |
| 2026-05-05 12:14 | 43.79364 | -6.68144 | 35035 ft | 439 kts | 218° |
| 2026-05-05 12:14 | 43.74343 | -6.72955 | 35043 ft | 439 kts | 218° |
| 2026-05-05 12:15 | 43.69318 | -6.77754 | 35047 ft | 439 kts | 218° |
| 2026-05-05 12:15 | 43.64328 | -6.82510 | 35048 ft | 438 kts | 218° |
| 2026-05-05 12:16 | 43.59309 | -6.87285 | 35024 ft | 439 kts | 218° |
| 2026-05-05 12:16 | 43.54283 | -6.92065 | 35033 ft | 439 kts | 218° |
| 2026-05-05 12:17 | 43.49255 | -6.96832 | 35039 ft | 439 kts | 218° |
| 2026-05-05 12:17 | 43.44219 | -7.01594 | 35040 ft | 439 kts | 218° |
| 2026-05-05 12:18 | 43.39219 | -7.06319 | 35030 ft | 439 kts | 218° |
| 2026-05-05 12:18 | 43.34196 | -7.11045 | 35044 ft | 438 kts | 218° |
| 2026-05-05 12:19 | 43.29174 | -7.15765 | 35044 ft | 438 kts | 218° |
| 2026-05-05 12:19 | 43.24135 | -7.20505 | 35046 ft | 437 kts | 218° |
| 2026-05-05 12:20 | 43.19119 | -7.25211 | 35019 ft | 437 kts | 219° |
| 2026-05-05 12:20 | 43.14087 | -7.29914 | 35036 ft | 438 kts | 219° |
| 2026-05-05 12:21 | 43.09088 | -7.34573 | 35039 ft | 437 kts | 219° |
| 2026-05-05 12:21 | 43.04058 | -7.39252 | 35043 ft | 438 kts | 219° |
| 2026-05-05 12:22 | 42.99028 | -7.43924 | 35046 ft | 437 kts | 219° |
| 2026-05-05 12:22 | 42.94010 | -7.48578 | 35044 ft | 437 kts | 219° |
| 2026-05-05 12:23 | 42.89015 | -7.53195 | 35048 ft | 437 kts | 219° |
| 2026-05-05 12:23 | 42.83993 | -7.57818 | 35052 ft | 436 kts | 219° |
| 2026-05-05 12:24 | 42.78963 | -7.62455 | 35029 ft | 436 kts | 219° |
| 2026-05-05 12:24 | 42.74097 | -7.66938 | 35027 ft | 436 kts | 219° |
| 2026-05-05 12:25 | 42.69096 | -7.71532 | 35037 ft | 436 kts | 219° |
| 2026-05-05 12:25 | 42.64169 | -7.76042 | 35043 ft | 436 kts | 219° |
| 2026-05-05 12:26 | 42.58681 | -7.79468 | 35044 ft | 448 kts | 200° |
| 2026-05-05 12:26 | 42.52671 | -7.81704 | 35045 ft | 448 kts | 200° |
| 2026-05-05 12:27 | 42.46669 | -7.83965 | 35043 ft | 447 kts | 200° |
| 2026-05-05 12:27 | 42.40758 | -7.86185 | 34860 ft | 447 kts | 200° |
| 2026-05-05 12:28 | 42.37767 | -7.87302 | 34621 ft | 445 kts | 200° |
| 2026-05-05 12:28 | 42.34790 | -7.88417 | 34390 ft | 443 kts | 200° |
| 2026-05-05 12:28 | 42.31826 | -7.89524 | 34147 ft | 442 kts | 201° |
| 2026-05-05 12:28 | 42.28866 | -7.90627 | 33898 ft | 440 kts | 201° |
| 2026-05-05 12:29 | 42.25919 | -7.91724 | 33628 ft | 439 kts | 201° |
| 2026-05-05 12:29 | 42.23011 | -7.92805 | 33362 ft | 435 kts | 201° |
| 2026-05-05 12:29 | 42.20079 | -7.93888 | 32918 ft | 432 kts | 201° |
| 2026-05-05 12:29 | 42.17221 | -7.94943 | 32455 ft | 430 kts | 201° |
| 2026-05-05 12:30 | 42.14348 | -7.96003 | 31992 ft | 428 kts | 201° |
| 2026-05-05 12:30 | 42.11486 | -7.97060 | 31528 ft | 425 kts | 202° |
| 2026-05-05 12:30 | 42.08646 | -7.98109 | 31102 ft | 422 kts | 202° |
| 2026-05-05 12:30 | 42.05963 | -7.99108 | 30692 ft | 420 kts | 203° |
| 2026-05-05 12:31 | 42.03155 | -8.00150 | 30242 ft | 419 kts | 203° |
| 2026-05-05 12:31 | 42.00342 | -8.01188 | 29785 ft | 417 kts | 203° |
| 2026-05-05 12:31 | 41.97557 | -8.02213 | 29372 ft | 414 kts | 203° |
| 2026-05-05 12:31 | 41.94797 | -8.03227 | 28969 ft | 410 kts | 203° |
| 2026-05-05 12:32 | 41.92087 | -8.04224 | 28579 ft | 408 kts | 203° |
| 2026-05-05 12:32 | 41.89524 | -8.05166 | 28222 ft | 405 kts | 204° |
| 2026-05-05 12:32 | 41.86819 | -8.06165 | 27818 ft | 402 kts | 205° |
| 2026-05-05 12:32 | 41.84284 | -8.07542 | 27431 ft | 387 kts | 218° |
| 2026-05-05 12:33 | 41.82100 | -8.09517 | 27057 ft | 372 kts | 230° |
| 2026-05-05 12:33 | 41.80325 | -8.11944 | 26690 ft | 357 kts | 241° |
| 2026-05-05 12:33 | 41.78979 | -8.14652 | 26342 ft | 343 kts | 251° |
| 2026-05-05 12:33 | 41.77899 | -8.17429 | 25996 ft | 340 kts | 251° |
| 2026-05-05 12:34 | 41.76816 | -8.20208 | 25649 ft | 337 kts | 251° |
| 2026-05-05 12:34 | 41.75734 | -8.22970 | 25302 ft | 334 kts | 251° |
| 2026-05-05 12:34 | 41.74658 | -8.25716 | 24934 ft | 332 kts | 251° |
| 2026-05-05 12:34 | 41.73605 | -8.28402 | 24572 ft | 329 kts | 251° |
| 2026-05-05 12:35 | 41.72548 | -8.31097 | 24224 ft | 326 kts | 251° |
| 2026-05-05 12:35 | 41.71504 | -8.33754 | 23854 ft | 324 kts | 251° |
| 2026-05-05 12:35 | 41.70458 | -8.36415 | 23451 ft | 321 kts | 253° |
| 2026-05-05 12:35 | 41.69425 | -8.39045 | 23096 ft | 317 kts | 253° |
| 2026-05-05 12:36 | 41.68403 | -8.41647 | 22740 ft | 314 kts | 252° |
| 2026-05-05 12:36 | 41.67391 | -8.44221 | 22358 ft | 311 kts | 253° |
| 2026-05-05 12:36 | 41.66421 | -8.46684 | 22040 ft | 307 kts | 252° |
| 2026-05-05 12:36 | 41.65449 | -8.49147 | 21702 ft | 304 kts | 252° |
| 2026-05-05 12:37 | 41.64468 | -8.51636 | 21369 ft | 301 kts | 252° |
| 2026-05-05 12:37 | 41.63496 | -8.54106 | 21019 ft | 299 kts | 252° |
| 2026-05-05 12:37 | 41.62531 | -8.56558 | 20678 ft | 298 kts | 251° |
| 2026-05-05 12:37 | 41.61604 | -8.58907 | 20351 ft | 297 kts | 251° |
| 2026-05-05 12:38 | 41.60638 | -8.61346 | 20002 ft | 297 kts | 250° |
| 2026-05-05 12:38 | 41.59673 | -8.63781 | 19659 ft | 296 kts | 250° |
| 2026-05-05 12:38 | 41.58714 | -8.66202 | 19328 ft | 295 kts | 249° |
| 2026-05-05 12:38 | 41.57753 | -8.68623 | 18987 ft | 294 kts | 249° |
| 2026-05-05 12:39 | 41.56844 | -8.70913 | 18662 ft | 294 kts | 249° |
| 2026-05-05 12:39 | 41.55884 | -8.73331 | 18293 ft | 294 kts | 250° |
| 2026-05-05 12:39 | 41.54926 | -8.75736 | 17938 ft | 292 kts | 250° |
| 2026-05-05 12:39 | 41.54019 | -8.78007 | 17611 ft | 290 kts | 249° |
| 2026-05-05 12:40 | 41.53160 | -8.80160 | 17313 ft | 289 kts | 249° |
| 2026-05-05 12:40 | 41.52249 | -8.82446 | 16993 ft | 288 kts | 249° |
| 2026-05-05 12:40 | 41.51160 | -8.84702 | 16665 ft | 295 kts | 234° |
| 2026-05-05 12:40 | 41.49558 | -8.86409 | 16318 ft | 305 kts | 214° |
| 2026-05-05 12:41 | 41.47514 | -8.87305 | 15926 ft | 316 kts | 191° |
| 2026-05-05 12:41 | 41.45293 | -8.87174 | 15439 ft | 327 kts | 171° |
| 2026-05-05 12:41 | 41.43053 | -8.86551 | 15016 ft | 329 kts | 171° |
| 2026-05-05 12:41 | 41.40960 | -8.85974 | 14649 ft | 329 kts | 171° |
| 2026-05-05 12:42 | 41.38718 | -8.85364 | 14244 ft | 329 kts | 171° |
| 2026-05-05 12:42 | 41.36530 | -8.84777 | 13839 ft | 330 kts | 171° |
| 2026-05-05 12:42 | 41.34277 | -8.84177 | 13402 ft | 329 kts | 171° |
| 2026-05-05 12:42 | 41.32042 | -8.83581 | 12993 ft | 327 kts | 171° |
| 2026-05-05 12:43 | 41.29840 | -8.82992 | 12595 ft | 326 kts | 171° |
| 2026-05-05 12:43 | 41.27621 | -8.82400 | 12188 ft | 325 kts | 171° |
| 2026-05-05 12:43 | 41.25404 | -8.81814 | 11783 ft | 324 kts | 171° |
| 2026-05-05 12:43 | 41.23192 | -8.81228 | 11377 ft | 323 kts | 171° |
| 2026-05-05 12:44 | 41.21254 | -8.80715 | 11024 ft | 322 kts | 170° |
| 2026-05-05 12:44 | 41.19252 | -8.80181 | 10656 ft | 321 kts | 170° |
| 2026-05-05 12:44 | 41.17062 | -8.79595 | 10254 ft | 320 kts | 170° |
| 2026-05-05 12:44 | 41.14912 | -8.79020 | 9850 ft | 311 kts | 170° |
| 2026-05-05 12:45 | 41.12816 | -8.78460 | 9488 ft | 304 kts | 169° |
| 2026-05-05 12:45 | 41.10773 | -8.77915 | 9151 ft | 302 kts | 170° |
| 2026-05-05 12:45 | 41.08718 | -8.77370 | 8801 ft | 300 kts | 170° |
| 2026-05-05 12:45 | 41.06679 | -8.76833 | 8451 ft | 298 kts | 170° |
| 2026-05-05 12:46 | 41.04648 | -8.76297 | 8088 ft | 297 kts | 169° |
| 2026-05-05 12:46 | 41.03074 | -8.75879 | 7786 ft | 297 kts | 169° |
| 2026-05-05 12:46 | 41.01045 | -8.75340 | 7397 ft | 297 kts | 169° |
| 2026-05-05 12:46 | 40.99129 | -8.74564 | 7020 ft | 294 kts | 149° |
| 2026-05-05 12:47 | 40.97698 | -8.72756 | 6658 ft | 280 kts | 118° |
| 2026-05-05 12:47 | 40.97136 | -8.70385 | 6258 ft | 266 kts | 88° |
| 2026-05-05 12:47 | 40.97355 | -8.68047 | 5892 ft | 255 kts | 75° |
| 2026-05-05 12:47 | 40.97700 | -8.65761 | 5531 ft | 247 kts | 76° |
| 2026-05-05 12:48 | 40.98187 | -8.63670 | 5209 ft | 233 kts | 54° |
| 2026-05-05 12:48 | 40.99293 | -8.62270 | 4895 ft | 213 kts | 22° |
| 2026-05-05 12:48 | 41.00662 | -8.61859 | 4621 ft | 196 kts | 354° |
| 2026-05-05 12:48 | 41.01969 | -8.62159 | 4376 ft | 187 kts | 346° |
| 2026-05-05 12:49 | 41.03209 | -8.62490 | 4176 ft | 176 kts | 346° |
| 2026-05-05 12:49 | 41.04397 | -8.62802 | 3911 ft | 174 kts | 345° |
| 2026-05-05 12:49 | 41.05498 | -8.63090 | 3686 ft | 174 kts | 346° |
| 2026-05-05 12:49 | 41.06705 | -8.63407 | 3452 ft | 174 kts | 346° |
| 2026-05-05 12:50 | 41.07884 | -8.63717 | 3234 ft | 176 kts | 345° |
| 2026-05-05 12:50 | 41.09063 | -8.64022 | 3008 ft | 166 kts | 346° |
| 2026-05-05 12:50 | 41.10176 | -8.64310 | 2815 ft | 167 kts | 344° |
| 2026-05-05 12:50 | 41.11333 | -8.64616 | 2590 ft | 169 kts | 345° |
| 2026-05-05 12:51 | 41.12444 | -8.64902 | 2379 ft | 157 kts | 345° |
| 2026-05-05 12:51 | 41.13480 | -8.65168 | 2193 ft | 146 kts | 346° |
| 2026-05-05 12:51 | 41.14427 | -8.65411 | 2010 ft | 131 kts | 345° |
| 2026-05-05 12:51 | 41.15304 | -8.65637 | 1833 ft | 127 kts | 343° |
| 2026-05-05 12:52 | 41.16158 | -8.65859 | 1674 ft | 124 kts | 342° |
| 2026-05-05 12:52 | 41.16983 | -8.66074 | 1518 ft | 124 kts | 344° |
| 2026-05-05 12:52 | 41.17831 | -8.66297 | 1353 ft | 124 kts | 343° |
| 2026-05-05 12:52 | 41.18689 | -8.66521 | 1190 ft | 127 kts | 344° |
| 2026-05-05 12:53 | 41.19557 | -8.66747 | 1019 ft | 128 kts | 342° |
| 2026-05-05 12:53 | 41.20436 | -8.66977 | 850 ft | 129 kts | 345° |
| 2026-05-05 12:53 | 41.21317 | -8.67197 | 649 ft | 128 kts | 342° |
| 2026-05-05 12:53 | 41.22186 | -8.67415 | 480 ft | 127 kts | 341° |
| 2026-05-05 12:54 | 41.23798 | -8.67851 | 229 ft | 124 kts | 340° |
| 2026-05-05 12:54 | 41.24553 | -8.68071 | 206 ft | 93 kts | 349° |
| 2026-05-05 12:54 | 41.25016 | -8.68185 | 189 ft | 47 kts | 353° |
| 2026-05-05 12:55 | 41.25241 | -8.68119 | 180 ft | 15 kts | 15° |
| 2026-05-05 12:55 | 41.25297 | -8.68058 | 180 ft | 10 kts | 81° |
| 2026-05-05 12:55 | 41.25257 | -8.68013 | 183 ft | 8 kts | 165° |
| 2026-05-05 12:55 | 41.25243 | -8.68009 | 183 ft | 0 kts | 169° |
| 2026-05-05 12:56 | 41.25214 | -8.68002 | 185 ft | 9 kts | 168° |
| 2026-05-05 12:56 | 41.25150 | -8.67984 | 188 ft | 9 kts | 168° |
| 2026-05-05 12:56 | 41.25092 | -8.67968 | 197 ft | 9 kts | 169° |
| 2026-05-05 12:56 | 41.25030 | -8.67953 | 198 ft | 10 kts | 169° |
| 2026-05-05 12:57 | 41.24962 | -8.67936 | 194 ft | 10 kts | 169° |
| 2026-05-05 12:57 | 41.24895 | -8.67916 | 198 ft | 10 kts | 163° |
| 2026-05-05 12:57 | 41.24821 | -8.67869 | 209 ft | 14 kts | 150° |
| 2026-05-05 12:57 | 41.24737 | -8.67821 | 214 ft | 13 kts | 168° |
| 2026-05-05 12:58 | 41.24643 | -8.67797 | 212 ft | 17 kts | 169° |
| 2026-05-05 12:58 | 41.24500 | -8.67760 | 220 ft | 22 kts | 168° |
| 2026-05-05 12:58 | 41.24353 | -8.67721 | 228 ft | 21 kts | 169° |
| 2026-05-05 12:58 | 41.24261 | -8.67632 | 235 ft | 9 kts | 124° |
| 2026-05-05 12:59 | 41.24229 | -8.67575 | 238 ft | 7 kts | 127° |
| 2026-05-05 12:59 | 41.24184 | -8.67507 | 240 ft | 13 kts | 139° |
| 2026-05-05 12:59 | 41.24099 | -8.67442 | 242 ft | 15 kts | 159° |
| 2026-05-05 13:00 | 41.23960 | -8.67395 | 242 ft | 7 kts | 118° |
| 2026-05-05 13:00 | 41.23938 | -8.67348 | 244 ft | 5 kts | 124° |
| 2026-05-05 13:01 | 41.23921 | -8.67316 | 245 ft | 0 kts | 123° |